Terminal Aerodrome Forecast
Issued by NWS

Home | Current Version | Previous Version | Text Only | Print | Product List | Glossary On
Versions: 1 2 3 4 5 6 7 8 9 10 11 12 13 14 15 16 17 18
963
FTUS43 KAPX 271727 AAB
TAFTVC
TAF AMD
KTVC 271727Z 2717/2818 24010KT P6SM -SHRA SCT025 OVC040
     FM272300 25008KT P6SM -SHRA OVC025
     FM280300 25004KT 6SM -SHRA BR BKN015 OVC025
     FM280600 VRB03KT 5SM BR VCSH BKN015 OVC025
     FM281200 08004KT P6SM BKN012 OVC025
     FM281400 07007KT P6SM OVC025
     FM281600 06009KT P6SM SCT025 OVC035=

USA.gov is the U.S. government's official web portal to all federal, state and local government web resources and services.